Time;durP1;ratioP1;P1;durP2;ratioP2;P2;SDS_P1;SDS_P2;PMS_P1;PMS_P2;Temp;Humidity;BMP_temperature;BMP_pressure;BME280_temperature;BME280_humidity;BME280_pressure;Samples;Min_cycle;Max_cycle;Signal;HPM_P1;HPM_P2
2021/09/01 00:02:17;;;;;;;8.20;3.30;;;;;;;;;;5081105;28;20029;-66
2021/09/01 00:04:43;;;;;;;7.45;3.90;;;;;;;;;;5081312;28;20035;-72
2021/09/01 00:07:09;;;;;;;5.45;3.40;;;;;;;;;;5080398;28;20032;-71
2021/09/01 00:09:37;;;;;;;8.02;3.65;;;;;;;;;;5082416;28;20028;-70
2021/09/01 00:12:03;;;;;;;5.00;3.25;;;;;;;;;;5079584;28;20016;-73
2021/09/01 00:14:32;;;;;;;6.75;3.42;;;;;;;;;;5080295;28;20472;-68
2021/09/01 00:16:58;;;;;;;4.50;3.53;;;;;;;;;;5081227;28;20031;-69
2021/09/01 00:19:25;;;;;;;7.05;3.47;;;;;;;;;;5079531;28;20025;-69
2021/09/01 00:21:51;;;;;;;5.70;3.30;;;;;;;;;;5080439;28;20075;-72
2021/09/01 00:24:17;;;;;;;5.25;3.30;;;;;;;;;;5080556;28;20464;-70
2021/09/01 00:26:44;;;;;;;6.78;3.72;;;;;;;;;;5079618;28;20052;-72
2021/09/01 00:29:10;;;;;;;6.57;3.55;;;;;;;;;;5079486;28;20034;-74
2021/09/01 00:31:36;;;;;;;5.18;3.30;;;;;;;;;;5080110;28;20476;-71
2021/09/01 00:34:02;;;;;;;5.90;3.90;;;;;;;;;;5080381;28;20045;-71
2021/09/01 00:36:28;;;;;;;3.97;3.30;;;;;;;;;;5080382;28;20048;-72
2021/09/01 00:38:54;;;;;;;5.70;3.25;;;;;;;;;;5082222;28;20044;-70
2021/09/01 00:41:21;;;;;;;6.10;3.80;;;;;;;;;;5080287;28;20522;-68
2021/09/01 00:43:50;;;;;;;5.55;3.63;;;;;;;;;;5079615;28;20052;-72
2021/09/01 00:46:17;;;;;;;7.43;3.50;;;;;;;;;;5079964;28;20075;-72
2021/09/01 00:48:44;;;;;;;4.80;3.50;;;;;;;;;;5079736;28;20025;-71
2021/09/01 00:51:10;;;;;;;5.53;3.65;;;;;;;;;;5079126;28;20024;-75
2021/09/01 00:53:38;;;;;;;5.28;3.53;;;;;;;;;;5086775;28;20475;-71
2021/09/01 00:56:04;;;;;;;4.95;3.38;;;;;;;;;;5087745;28;20028;-67
2021/09/01 00:58:36;;;;;;;6.15;3.67;;;;;;;;;;5086734;28;20051;-70
2021/09/01 01:03:32;;;;;;;9.13;3.83;;;;;;;;;;5082383;28;20368;-66
2021/09/01 01:05:59;;;;;;;6.90;3.47;;;;;;;;;;5082699;28;20020;-68
2021/09/01 01:08:31;;;;;;;6.00;3.40;;;;;;;;;;5100755;28;20024;-68
2021/09/01 01:10:57;;;;;;;5.57;3.70;;;;;;;;;;5062609;28;20021;-71
2021/09/01 01:13:23;;;;;;;5.57;3.25;;;;;;;;;;5061438;28;20094;-73
2021/09/01 01:15:50;;;;;;;5.35;4.43;;;;;;;;;;5062707;28;20025;-69
2021/09/01 01:18:18;;;;;;;9.82;3.38;;;;;;;;;;5063055;28;20032;-67
2021/09/01 01:20:46;;;;;;;4.13;3.00;;;;;;;;;;5061710;28;20415;-67
2021/09/01 01:23:12;;;;;;;4.28;2.88;;;;;;;;;;5077077;28;20028;-66
2021/09/01 01:25:39;;;;;;;10.93;3.75;;;;;;;;;;5082454;28;20020;-70
2021/09/01 01:28:09;;;;;;;6.05;3.20;;;;;;;;;;5082199;28;20024;-67
2021/09/01 01:30:36;;;;;;;6.35;3.17;;;;;;;;;;5081967;28;20052;-67
2021/09/01 01:33:02;;;;;;;6.07;2.90;;;;;;;;;;5081283;28;20032;-72
2021/09/01 01:35:38;;;;;;;4.97;3.55;;;;;;;;;;5081306;28;20024;-72
2021/09/01 01:38:06;;;;;;;5.75;2.55;;;;;;;;;;5082808;28;20016;-70
2021/09/01 01:40:35;;;;;;;9.30;4.03;;;;;;;;;;5086002;28;20029;-69
2021/09/01 01:43:02;;;;;;;4.75;3.08;;;;;;;;;;5085009;28;20033;-67
2021/09/01 01:45:34;;;;;;;4.20;2.60;;;;;;;;;;5083988;28;20032;-70
2021/09/01 01:48:01;;;;;;;4.40;2.65;;;;;;;;;;5084305;28;20120;-68
2021/09/01 01:50:28;;;;;;;3.92;3.13;;;;;;;;;;5084458;28;20024;-70
2021/09/01 01:52:54;;;;;;;6.88;3.15;;;;;;;;;;5086076;28;20032;-67
2021/09/01 01:55:20;;;;;;;6.57;3.67;;;;;;;;;;5084467;28;20019;-70
2021/09/01 01:57:46;;;;;;;4.25;2.90;;;;;;;;;;5082424;28;20024;-67
2021/09/01 02:00:13;;;;;;;6.22;2.97;;;;;;;;;;5082933;28;20075;-68
2021/09/01 02:02:39;;;;;;;5.07;2.85;;;;;;;;;;5081220;28;20479;-70
2021/09/01 02:05:06;;;;;;;5.43;3.22;;;;;;;;;;5083117;28;20024;-70
2021/09/01 02:07:32;;;;;;;4.10;2.80;;;;;;;;;;5082617;28;20043;-69
2021/09/01 02:09:59;;;;;;;5.07;3.65;;;;;;;;;;5085631;28;20029;-67
2021/09/01 02:12:31;;;;;;;6.03;3.10;;;;;;;;;;5085674;28;20036;-68
2021/09/01 02:14:58;;;;;;;4.75;3.08;;;;;;;;;;5085020;28;20091;-67
2021/09/01 02:17:24;;;;;;;6.05;2.88;;;;;;;;;;5084979;28;20025;-70
2021/09/01 02:19:51;;;;;;;7.75;4.00;;;;;;;;;;5085055;28;20452;-68
2021/09/01 02:22:17;;;;;;;5.72;3.25;;;;;;;;;;5082580;28;20026;-72
2021/09/01 02:24:43;;;;;;;3.75;2.90;;;;;;;;;;5081054;28;20055;-68
2021/09/01 02:27:09;;;;;;;6.10;3.90;;;;;;;;;;5080790;28;20025;-70
2021/09/01 02:29:35;;;;;;;10.07;3.20;;;;;;;;;;5080684;28;20028;-68
2021/09/01 02:32:01;;;;;;;4.97;2.97;;;;;;;;;;5080868;28;20452;-72
2021/09/01 02:34:27;;;;;;;5.95;3.65;;;;;;;;;;5080931;28;20021;-70
2021/09/01 02:36:54;;;;;;;5.22;3.53;;;;;;;;;;5080649;28;20024;-70
2021/09/01 02:39:20;;;;;;;5.70;3.15;;;;;;;;;;5085835;28;20099;-69
2021/09/01 02:41:46;;;;;;;5.10;2.90;;;;;;;;;;5085777;28;20021;-66
2021/09/01 02:44:12;;;;;;;8.55;2.95;;;;;;;;;;5084114;28;20025;-67
2021/09/01 02:46:38;;;;;;;7.68;3.10;;;;;;;;;;5084427;28;20031;-72
2021/09/01 02:49:04;;;;;;;4.68;2.92;;;;;;;;;;5080779;28;20032;-69
2021/09/01 02:51:30;;;;;;;5.13;2.65;;;;;;;;;;5079792;28;20047;-72
2021/09/01 02:53:56;;;;;;;6.78;2.95;;;;;;;;;;5084599;28;20048;-65
2021/09/01 02:56:23;;;;;;;5.60;3.10;;;;;;;;;;5084883;28;20108;-70
2021/09/01 02:58:49;;;;;;;4.50;2.67;;;;;;;;;;5082692;28;20024;-71
2021/09/01 03:01:15;;;;;;;8.52;2.38;;;;;;;;;;5079254;28;20029;-70
2021/09/01 03:03:44;;;;;;;7.95;2.85;;;;;;;;;;5084239;28;20032;-66
2021/09/01 03:06:10;;;;;;;3.10;2.40;;;;;;;;;;5083774;28;20040;-71
2021/09/01 03:08:36;;;;;;;5.22;2.25;;;;;;;;;;5084635;28;20020;-67
2021/09/01 03:11:03;;;;;;;3.58;2.10;;;;;;;;;;5084521;28;20045;-67
2021/09/01 03:13:29;;;;;;;7.65;3.08;;;;;;;;;;5085385;28;20040;-68
2021/09/01 03:18:48;;;;;;;4.75;2.13;;;;;;;;;;5082105;28;20032;-68
2021/09/01 03:21:14;;;;;;;6.93;2.70;;;;;;;;;;5082394;28;20089;-69
2021/09/01 03:23:46;;;;;;;3.28;2.05;;;;;;;;;;5081026;28;20031;-67
2021/09/01 03:26:12;;;;;;;8.50;2.20;;;;;;;;;;5079379;28;20107;-71
2021/09/01 03:28:38;;;;;;;4.88;2.33;;;;;;;;;;5078912;28;20039;-72
2021/09/01 03:31:05;;;;;;;5.88;2.33;;;;;;;;;;5079710;28;20031;-73
2021/09/01 03:33:33;;;;;;;6.05;2.38;;;;;;;;;;5083098;28;20084;-72
2021/09/01 03:36:07;;;;;;;5.13;2.30;;;;;;;;;;5083553;28;20044;-66
2021/09/01 03:38:37;;;;;;;4.15;1.90;;;;;;;;;;5087340;28;20379;-66
2021/09/01 03:41:03;;;;;;;6.03;2.20;;;;;;;;;;5087732;28;20084;-68
2021/09/01 03:43:29;;;;;;;4.18;2.30;;;;;;;;;;5086987;28;20050;-69
2021/09/01 03:45:55;;;;;;;4.30;2.85;;;;;;;;;;5085612;28;20040;-68
2021/09/01 03:48:22;;;;;;;4.57;2.40;;;;;;;;;;5084787;28;20039;-72
2021/09/01 03:50:48;;;;;;;3.08;2.35;;;;;;;;;;5082152;28;20056;-70
2021/09/01 03:53:16;;;;;;;7.55;2.65;;;;;;;;;;5082391;28;20471;-72
2021/09/01 03:55:42;;;;;;;4.28;2.20;;;;;;;;;;5083844;28;20029;-68
2021/09/01 03:58:08;;;;;;;8.63;2.33;;;;;;;;;;5082837;28;20108;-71
2021/09/01 04:00:34;;;;;;;6.47;2.50;;;;;;;;;;5082477;28;20576;-71
2021/09/01 04:03:00;;;;;;;5.90;2.33;;;;;;;;;;5082573;28;20029;-72
2021/09/01 04:05:26;;;;;;;7.32;2.90;;;;;;;;;;5083684;28;20025;-68
2021/09/01 04:07:52;;;;;;;4.72;2.67;;;;;;;;;;5082325;28;20048;-69
2021/09/01 04:10:18;;;;;;;4.55;2.70;;;;;;;;;;5086087;28;20033;-68
2021/09/01 04:12:44;;;;;;;4.07;2.90;;;;;;;;;;5090665;28;20040;-68
2021/09/01 04:15:11;;;;;;;6.47;2.80;;;;;;;;;;5084724;28;20074;-70
2021/09/01 04:17:37;;;;;;;4.68;2.83;;;;;;;;;;5083153;28;20017;-71
2021/09/01 04:20:03;;;;;;;5.90;2.88;;;;;;;;;;5082342;28;20024;-67
2021/09/01 04:22:32;;;;;;;5.78;2.88;;;;;;;;;;5082552;28;20448;-69
2021/09/01 04:24:58;;;;;;;5.78;2.67;;;;;;;;;;5083390;28;20032;-72
2021/09/01 04:27:25;;;;;;;4.10;2.40;;;;;;;;;;5081360;28;20480;-73
2021/09/01 04:29:51;;;;;;;4.13;3.20;;;;;;;;;;5082125;28;20060;-70
2021/09/01 04:32:17;;;;;;;7.00;3.20;;;;;;;;;;5082084;28;20071;-70
2021/09/01 04:34:43;;;;;;;5.43;2.83;;;;;;;;;;5083555;28;20024;-66
2021/09/01 04:37:09;;;;;;;3.70;2.70;;;;;;;;;;5084709;28;20435;-73
2021/09/01 04:39:35;;;;;;;5.68;3.00;;;;;;;;;;5088968;28;20108;-77
2021/09/01 04:42:02;;;;;;;4.45;3.10;;;;;;;;;;5089040;28;20093;-68
2021/09/01 04:44:28;;;;;;;5.28;2.83;;;;;;;;;;5089353;28;20036;-71
2021/09/01 04:46:55;;;;;;;6.20;2.92;;;;;;;;;;5087834;28;20016;-68
2021/09/01 04:49:21;;;;;;;7.65;3.13;;;;;;;;;;5088627;28;20044;-72
2021/09/01 04:51:47;;;;;;;6.93;2.75;;;;;;;;;;5088169;28;20028;-69
2021/09/01 04:54:13;;;;;;;5.60;3.20;;;;;;;;;;5087330;28;20055;-66
2021/09/01 04:56:39;;;;;;;9.07;3.45;;;;;;;;;;5087132;28;20021;-66
2021/09/01 04:59:05;;;;;;;5.90;3.13;;;;;;;;;;5087632;28;20544;-67
2021/09/01 05:01:32;;;;;;;4.78;2.95;;;;;;;;;;5085701;28;20099;-67
2021/09/01 05:03:58;;;;;;;5.50;3.15;;;;;;;;;;5084772;28;20029;-69
2021/09/01 05:06:26;;;;;;;3.83;2.97;;;;;;;;;;5082214;28;20076;-68
2021/09/01 05:08:53;;;;;;;5.25;2.80;;;;;;;;;;5083565;28;20028;-73
2021/09/01 05:11:19;;;;;;;7.75;2.88;;;;;;;;;;5086444;28;20029;-72
2021/09/01 05:13:45;;;;;;;5.13;3.00;;;;;;;;;;5086222;28;20107;-69
2021/09/01 05:16:14;;;;;;;5.35;3.05;;;;;;;;;;5085033;28;20440;-67
2021/09/01 05:18:40;;;;;;;6.50;3.10;;;;;;;;;;5084710;28;20032;-69
2021/09/01 05:21:06;;;;;;;5.22;3.00;;;;;;;;;;5082088;28;20020;-70
2021/09/01 05:23:34;;;;;;;5.47;3.10;;;;;;;;;;5081203;28;20055;-73
2021/09/01 05:26:01;;;;;;;9.00;2.83;;;;;;;;;;5083848;28;20029;-70
2021/09/01 05:28:28;;;;;;;7.40;3.10;;;;;;;;;;5081424;28;20377;-68
2021/09/01 05:30:55;;;;;;;4.40;3.00;;;;;;;;;;5082859;28;20082;-73
2021/09/01 05:33:27;;;;;;;6.55;3.22;;;;;;;;;;5085536;28;20024;-71
2021/09/01 05:35:53;;;;;;;8.43;3.33;;;;;;;;;;5082788;28;20017;-70
2021/09/01 05:38:21;;;;;;;6.70;3.33;;;;;;;;;;5082376;28;20043;-69
2021/09/01 05:40:47;;;;;;;10.07;3.40;;;;;;;;;;5082501;28;20048;-69
2021/09/01 05:43:15;;;;;;;6.63;2.92;;;;;;;;;;5081469;28;20028;-70
2021/09/01 05:45:42;;;;;;;6.68;3.67;;;;;;;;;;5080990;28;20028;-69
2021/09/01 05:48:08;;;;;;;7.47;3.05;;;;;;;;;;5081456;28;20055;-71
2021/09/01 05:50:39;;;;;;;5.18;3.25;;;;;;;;;;5080142;28;20028;-71
2021/09/01 05:53:05;;;;;;;9.18;3.75;;;;;;;;;;5081416;28;20012;-70
2021/09/01 05:55:35;;;;;;;5.68;2.90;;;;;;;;;;5082981;28;20108;-70
2021/09/01 05:58:03;;;;;;;6.28;3.20;;;;;;;;;;5080780;28;20024;-71
2021/09/01 06:00:36;;;;;;;10.60;3.50;;;;;;;;;;5082957;28;20048;-66
2021/09/01 06:03:08;;;;;;;10.20;3.35;;;;;;;;;;5084327;28;20063;-66
2021/09/01 06:05:40;;;;;;;5.25;2.92;;;;;;;;;;5083343;28;20031;-67
2021/09/01 06:08:08;;;;;;;4.97;2.45;;;;;;;;;;5084507;28;20029;-71
2021/09/01 06:10:35;;;;;;;12.50;4.03;;;;;;;;;;5080136;28;20021;-72
2021/09/01 06:13:09;;;;;;;7.18;2.95;;;;;;;;;;5078807;28;20044;-70
2021/09/01 06:15:39;;;;;;;5.45;2.72;;;;;;;;;;5081706;28;20025;-69
2021/09/01 06:18:06;;;;;;;7.07;3.10;;;;;;;;;;5081117;28;20031;-68
2021/09/01 06:20:32;;;;;;;5.13;3.10;;;;;;;;;;5080627;28;20055;-70
2021/09/01 06:22:59;;;;;;;4.22;2.30;;;;;;;;;;5080441;28;20472;-71
2021/09/01 06:25:25;;;;;;;8.10;3.53;;;;;;;;;;5081922;28;20024;-68
2021/09/01 06:27:51;;;;;;;6.53;2.85;;;;;;;;;;5081960;28;20032;-72
2021/09/01 06:30:17;;;;;;;8.48;3.45;;;;;;;;;;5082020;28;20088;-68
2021/09/01 06:32:44;;;;;;;6.80;2.97;;;;;;;;;;5099303;28;20032;-72
2021/09/01 06:35:12;;;;;;;4.05;3.13;;;;;;;;;;5082115;28;20028;-67
2021/09/01 06:37:38;;;;;;;8.02;2.70;;;;;;;;;;5082513;28;20032;-72
2021/09/01 06:40:04;;;;;;;7.30;2.75;;;;;;;;;;5083881;28;20464;-66
2021/09/01 06:42:31;;;;;;;4.45;2.80;;;;;;;;;;5082667;28;20054;-67
2021/09/01 06:44:57;;;;;;;5.60;2.88;;;;;;;;;;5084005;28;20026;-72
2021/09/01 06:47:24;;;;;;;7.25;2.92;;;;;;;;;;5082385;28;20024;-73
2021/09/01 06:49:50;;;;;;;4.65;2.63;;;;;;;;;;5080820;28;20032;-70
2021/09/01 06:52:16;;;;;;;4.43;2.88;;;;;;;;;;5080094;28;20029;-71
2021/09/01 06:54:42;;;;;;;7.88;3.42;;;;;;;;;;5081428;28;20051;-70
2021/09/01 06:57:08;;;;;;;5.80;3.25;;;;;;;;;;5082073;28;20052;-69
2021/09/01 06:59:34;;;;;;;4.13;2.88;;;;;;;;;;5081241;28;20028;-70
2021/09/01 07:02:01;;;;;;;7.10;3.20;;;;;;;;;;5079236;28;20025;-66
2021/09/01 07:04:27;;;;;;;5.47;3.05;;;;;;;;;;5080356;28;20107;-70
2021/09/01 07:06:53;;;;;;;10.80;3.38;;;;;;;;;;5078078;28;20024;-72
2021/09/01 07:09:19;;;;;;;5.80;2.90;;;;;;;;;;5069604;28;20028;-71
2021/09/01 07:11:45;;;;;;;7.00;3.70;;;;;;;;;;5073525;28;20055;-72
2021/09/01 07:14:11;;;;;;;8.80;4.80;;;;;;;;;;5075049;28;20049;-71
2021/09/01 07:16:37;;;;;;;6.03;3.20;;;;;;;;;;5072461;28;20043;-72
2021/09/01 07:19:05;;;;;;;8.23;4.10;;;;;;;;;;5071606;28;20045;-73
2021/09/01 07:21:31;;;;;;;7.28;3.90;;;;;;;;;;5074392;28;20071;-71
2021/09/01 07:24:00;;;;;;;5.72;3.10;;;;;;;;;;5077351;28;20054;-70
2021/09/01 07:26:26;;;;;;;7.60;3.42;;;;;;;;;;5075828;28;20131;-71
2021/09/01 07:28:52;;;;;;;4.68;3.22;;;;;;;;;;5075267;28;20059;-73
2021/09/01 07:31:18;;;;;;;5.40;3.13;;;;;;;;;;5091390;28;20038;-72
2021/09/01 07:33:44;;;;;;;6.43;3.03;;;;;;;;;;5096402;28;20024;-71
2021/09/01 07:36:10;;;;;;;5.95;3.00;;;;;;;;;;5073843;28;20028;-69
2021/09/01 07:38:36;;;;;;;8.50;3.22;;;;;;;;;;5074324;28;20051;-69
2021/09/01 07:41:02;;;;;;;5.35;3.15;;;;;;;;;;5073722;28;20523;-71
2021/09/01 07:43:29;;;;;;;5.90;3.05;;;;;;;;;;5073786;28;20044;-71
2021/09/01 07:45:55;;;;;;;5.90;3.13;;;;;;;;;;5072261;28;20028;-71
2021/09/01 07:48:22;;;;;;;6.82;3.60;;;;;;;;;;5071735;28;20147;-70
2021/09/01 07:50:51;;;;;;;6.90;3.80;;;;;;;;;;5074498;28;20024;-71
2021/09/01 07:53:17;;;;;;;4.88;3.45;;;;;;;;;;5074716;28;20028;-74
2021/09/01 07:55:43;;;;;;;4.88;3.85;;;;;;;;;;5074612;28;20031;-73
2021/09/01 07:58:09;;;;;;;6.10;3.13;;;;;;;;;;5075205;28;20031;-74
2021/09/01 08:00:35;;;;;;;6.90;3.80;;;;;;;;;;5073415;28;20033;-73
2021/09/01 08:03:01;;;;;;;11.38;4.20;;;;;;;;;;5074939;28;20103;-74
2021/09/01 08:05:27;;;;;;;6.20;3.50;;;;;;;;;;5074410;28;20032;-72
2021/09/01 08:07:53;;;;;;;6.97;3.95;;;;;;;;;;5075508;28;20081;-73
2021/09/01 08:10:20;;;;;;;6.63;3.65;;;;;;;;;;5076746;28;20103;-70
2021/09/01 08:12:46;;;;;;;4.20;3.35;;;;;;;;;;5073695;28;20041;-71
2021/09/01 08:15:12;;;;;;;8.40;3.78;;;;;;;;;;5078699;28;20040;-73
2021/09/01 08:17:39;;;;;;;6.25;3.58;;;;;;;;;;5076470;28;20046;-76
2021/09/01 08:20:06;;;;;;;6.10;3.88;;;;;;;;;;5076348;28;20078;-68
2021/09/01 08:22:32;;;;;;;4.60;3.63;;;;;;;;;;5077444;28;20036;-68
2021/09/01 08:24:58;;;;;;;6.68;3.65;;;;;;;;;;5077247;28;20021;-68
2021/09/01 08:27:26;;;;;;;4.95;3.45;;;;;;;;;;5073926;28;20040;-74
2021/09/01 08:29:52;;;;;;;4.95;3.15;;;;;;;;;;5073709;28;20036;-75
2021/09/01 08:32:18;;;;;;;4.57;3.22;;;;;;;;;;5073841;28;20030;-72
2021/09/01 08:34:45;;;;;;;7.00;3.53;;;;;;;;;;5074197;28;20898;-70
2021/09/01 08:37:11;;;;;;;4.97;3.65;;;;;;;;;;5078652;28;20471;-70
2021/09/01 08:39:37;;;;;;;6.05;3.78;;;;;;;;;;5080402;28;20028;-68
2021/09/01 08:42:03;;;;;;;6.60;3.30;;;;;;;;;;5080486;28;20032;-73
2021/09/01 08:44:29;;;;;;;5.95;3.53;;;;;;;;;;5072449;28;20389;-74
2021/09/01 08:46:56;;;;;;;4.90;3.55;;;;;;;;;;5075217;28;20032;-69
2021/09/01 08:49:24;;;;;;;3.20;2.72;;;;;;;;;;5074471;28;20033;-72
2021/09/01 08:51:50;;;;;;;6.13;3.90;;;;;;;;;;5074062;28;20028;-72
2021/09/01 08:54:16;;;;;;;4.60;3.05;;;;;;;;;;5075452;28;20501;-68
2021/09/01 08:56:43;;;;;;;6.70;3.25;;;;;;;;;;5076146;28;20110;-73
2021/09/01 08:59:09;;;;;;;4.18;3.45;;;;;;;;;;5077279;28;20025;-73
2021/09/01 09:01:39;;;;;;;6.43;3.42;;;;;;;;;;5074521;28;20035;-76
2021/09/01 09:04:06;;;;;;;4.68;2.83;;;;;;;;;;5072273;28;20056;-72
2021/09/01 09:06:43;;;;;;;4.03;3.45;;;;;;;;;;5071184;28;20035;-73
2021/09/01 09:09:10;;;;;;;4.75;3.65;;;;;;;;;;5071758;28;20067;-73
2021/09/01 09:11:36;;;;;;;7.68;3.55;;;;;;;;;;5053259;28;20575;-72
2021/09/01 09:14:15;;;;;;;6.07;3.30;;;;;;;;;;5071876;28;20045;-74
2021/09/01 09:16:41;;;;;;;3.60;2.78;;;;;;;;;;5071306;28;20028;-73
2021/09/01 09:19:07;;;;;;;4.38;2.88;;;;;;;;;;5072037;28;20372;-72
2021/09/01 09:21:35;;;;;;;5.00;3.00;;;;;;;;;;5070836;28;20036;-72
2021/09/01 09:24:16;;;;;;;4.18;3.03;;;;;;;;;;5070743;28;20024;-74
2021/09/01 09:26:43;;;;;;;4.72;3.05;;;;;;;;;;5070878;28;20039;-73
2021/09/01 09:29:10;;;;;;;4.93;3.03;;;;;;;;;;5071262;28;20028;-74
2021/09/01 09:31:37;;;;;;;4.20;2.88;;;;;;;;;;5071028;28;20498;-72
2021/09/01 09:34:08;;;;;;;6.00;3.03;;;;;;;;;;5070733;28;20035;-72
2021/09/01 09:36:34;;;;;;;3.55;3.00;;;;;;;;;;5070781;28;20021;-72
2021/09/01 09:39:00;;;;;;;4.88;3.47;;;;;;;;;;5072400;28;20028;-72
2021/09/01 09:41:30;;;;;;;6.10;3.25;;;;;;;;;;5072009;28;20036;-73
2021/09/01 09:44:00;;;;;;;3.40;2.67;;;;;;;;;;5071022;28;20040;-72
2021/09/01 09:46:27;;;;;;;4.13;3.03;;;;;;;;;;5073388;28;20028;-72
2021/09/01 09:48:54;;;;;;;4.43;2.75;;;;;;;;;;5072415;28;20099;-71
2021/09/01 09:51:41;;;;;;;4.53;2.97;;;;;;;;;;5071240;28;20475;-75
2021/09/01 09:54:17;;;;;;;4.80;3.25;;;;;;;;;;5072433;28;20104;-71
2021/09/01 09:56:45;;;;;;;5.28;3.13;;;;;;;;;;5072397;28;20047;-73
2021/09/01 09:59:15;;;;;;;5.38;3.58;;;;;;;;;;5072222;28;20476;-70
2021/09/01 10:01:41;;;;;;;4.82;3.30;;;;;;;;;;5073006;28;20032;-69
2021/09/01 10:04:07;;;;;;;4.75;3.00;;;;;;;;;;5072375;28;20048;-73
2021/09/01 10:06:33;;;;;;;5.10;2.90;;;;;;;;;;5079860;28;20032;-67
2021/09/01 10:09:02;;;;;;;5.25;3.13;;;;;;;;;;5080550;28;20713;-70
2021/09/01 10:11:28;;;;;;;5.03;2.95;;;;;;;;;;5075545;28;20032;-72
2021/09/01 10:13:54;;;;;;;4.00;2.97;;;;;;;;;;5078229;28;20040;-66
2021/09/01 10:16:20;;;;;;;6.00;3.00;;;;;;;;;;5079743;28;20488;-72
2021/09/01 10:18:49;;;;;;;4.05;3.10;;;;;;;;;;5075458;28;20012;-72
2021/09/01 10:21:16;;;;;;;5.45;3.47;;;;;;;;;;5076120;28;20523;-72
2021/09/01 10:23:44;;;;;;;4.43;3.10;;;;;;;;;;5076198;28;20116;-67
2021/09/01 10:26:27;;;;;;;3.95;2.92;;;;;;;;;;5076213;28;20047;-74
2021/09/01 10:28:54;;;;;;;4.57;3.17;;;;;;;;;;5074260;28;20052;-71
2021/09/01 10:31:21;;;;;;;4.95;3.22;;;;;;;;;;5074723;28;20028;-73
2021/09/01 10:33:49;;;;;;;5.65;3.10;;;;;;;;;;5073752;28;20028;-67
2021/09/01 10:36:24;;;;;;;6.97;3.42;;;;;;;;;;5073934;28;20028;-75
2021/09/01 10:39:08;;;;;;;6.68;3.65;;;;;;;;;;5072835;28;20096;-70
2021/09/01 10:41:35;;;;;;;5.33;3.50;;;;;;;;;;5073091;28;20086;-73
2021/09/01 10:44:13;;;;;;;4.38;3.00;;;;;;;;;;5073620;28;20039;-76
2021/09/01 10:47:00;;;;;;;7.07;4.40;;;;;;;;;;5079866;28;20028;-71
2021/09/01 10:49:27;;;;;;;20.95;11.27;;;;;;;;;;5078708;28;20032;-69
2021/09/01 10:51:55;;;;;;;13.05;6.53;;;;;;;;;;5077327;28;20028;-74
2021/09/01 10:54:41;;;;;;;9.10;5.97;;;;;;;;;;5078763;28;20027;-76
2021/09/01 10:57:23;;;;;;;7.68;5.20;;;;;;;;;;5060988;28;20021;-72
2021/09/01 10:59:49;;;;;;;7.55;4.00;;;;;;;;;;5077510;28;20067;-70
2021/09/01 11:02:24;;;;;;;5.68;3.85;;;;;;;;;;5081788;28;20024;-71
2021/09/01 11:04:54;;;;;;;8.80;5.38;;;;;;;;;;5082249;28;20028;-71
2021/09/01 11:07:25;;;;;;;4.93;3.80;;;;;;;;;;5075534;28;20024;-70
2021/09/01 11:09:52;;;;;;;7.70;3.95;;;;;;;;;;5081515;28;20060;-75
2021/09/01 11:12:18;;;;;;;5.90;4.45;;;;;;;;;;5085728;28;20052;-68
2021/09/01 11:14:48;;;;;;;7.43;4.70;;;;;;;;;;5082635;28;20491;-70
2021/09/01 11:17:15;;;;;;;7.57;4.68;;;;;;;;;;5083049;28;20124;-69
2021/09/01 11:19:42;;;;;;;5.70;5.10;;;;;;;;;;5079886;28;20498;-70
2021/09/01 11:22:10;;;;;;;7.55;5.35;;;;;;;;;;5079299;28;20043;-75
2021/09/01 11:24:43;;;;;;;4.97;3.95;;;;;;;;;;5076666;28;20036;-74
2021/09/01 11:27:13;;;;;;;8.52;5.32;;;;;;;;;;5081213;28;20024;-67
2021/09/01 11:29:39;;;;;;;4.78;3.20;;;;;;;;;;5079972;28;20387;-72
2021/09/01 11:32:05;;;;;;;8.88;4.38;;;;;;;;;;5079586;28;20025;-73
2021/09/01 11:34:31;;;;;;;6.10;3.70;;;;;;;;;;5078928;28;20032;-72
2021/09/01 11:36:57;;;;;;;5.75;3.90;;;;;;;;;;5078111;28;20020;-73
2021/09/01 11:39:24;;;;;;;5.15;3.30;;;;;;;;;;5081512;28;20075;-70
2021/09/01 11:42:00;;;;;;;5.63;3.90;;;;;;;;;;5081190;28;20037;-72
2021/09/01 11:44:27;;;;;;;7.00;3.50;;;;;;;;;;5080838;28;20035;-66
2021/09/01 11:46:53;;;;;;;5.72;3.65;;;;;;;;;;5079072;28;20048;-74
2021/09/01 11:49:19;;;;;;;6.55;4.13;;;;;;;;;;5078837;28;20033;-72
2021/09/01 11:51:46;;;;;;;5.72;3.95;;;;;;;;;;5077395;28;20024;-69
2021/09/01 11:54:14;;;;;;;9.00;4.60;;;;;;;;;;5076732;28;20035;-72
2021/09/01 11:56:40;;;;;;;6.63;4.00;;;;;;;;;;5082602;28;20020;-70
2021/09/01 11:59:07;;;;;;;6.45;4.32;;;;;;;;;;5078779;28;20025;-72
2021/09/01 12:01:35;;;;;;;8.75;3.67;;;;;;;;;;5076345;28;20101;-72
2021/09/01 12:04:02;;;;;;;5.57;4.03;;;;;;;;;;5082435;28;20095;-72
2021/09/01 12:06:38;;;;;;;6.80;3.88;;;;;;;;;;5080148;28;20028;-71
2021/09/01 12:09:05;;;;;;;14.05;9.55;;;;;;;;;;5076533;28;20483;-72
2021/09/01 12:11:32;;;;;;;6.70;3.58;;;;;;;;;;5077397;28;20036;-72
2021/09/01 12:14:03;;;;;;;5.57;4.72;;;;;;;;;;5076220;28;20078;-72
2021/09/01 12:16:31;;;;;;;6.60;4.68;;;;;;;;;;5076663;28;20040;-72
2021/09/01 12:19:01;;;;;;;8.05;4.40;;;;;;;;;;5077349;28;20723;-69
2021/09/01 12:21:42;;;;;;;6.80;4.63;;;;;;;;;;5073380;28;20025;-72
2021/09/01 12:24:15;;;;;;;6.38;3.60;;;;;;;;;;5073741;28;20032;-71
2021/09/01 12:26:45;;;;;;;8.55;3.88;;;;;;;;;;5073155;28;20415;-72
2021/09/01 12:29:30;;;;;;;9.00;3.90;;;;;;;;;;5072865;28;20025;-76
2021/09/01 12:31:57;;;;;;;7.40;3.88;;;;;;;;;;5073315;28;20038;-73
2021/09/01 12:34:31;;;;;;;11.48;5.35;;;;;;;;;;5073551;28;20029;-71
2021/09/01 12:36:58;;;;;;;7.88;5.15;;;;;;;;;;5073605;28;20029;-72
2021/09/01 12:39:24;;;;;;;8.52;6.15;;;;;;;;;;5078874;28;20032;-66
2021/09/01 12:41:50;;;;;;;7.03;4.50;;;;;;;;;;5084970;28;20032;-71
2021/09/01 12:44:17;;;;;;;6.90;4.65;;;;;;;;;;5083505;28;20024;-70
2021/09/01 12:46:43;;;;;;;8.73;4.35;;;;;;;;;;5082696;28;20029;-72
2021/09/01 12:49:25;;;;;;;8.65;4.70;;;;;;;;;;5079252;28;20089;-72
2021/09/01 12:51:52;;;;;;;7.38;4.20;;;;;;;;;;5083798;28;20030;-74
2021/09/01 12:54:21;;;;;;;6.30;4.57;;;;;;;;;;5075722;28;20035;-71
2021/09/01 12:56:50;;;;;;;4.50;3.70;;;;;;;;;;5076825;28;20034;-69
2021/09/01 12:59:16;;;;;;;8.77;5.72;;;;;;;;;;5079225;28;20096;-74
2021/09/01 13:01:42;;;;;;;8.23;4.40;;;;;;;;;;5077425;28;20470;-72
2021/09/01 13:04:09;;;;;;;9.05;3.97;;;;;;;;;;5077572;28;20036;-71
2021/09/01 13:06:35;;;;;;;6.05;4.05;;;;;;;;;;5080890;28;20016;-71
2021/09/01 13:09:01;;;;;;;8.27;4.53;;;;;;;;;;5079065;28;20036;-71
2021/09/01 13:11:29;;;;;;;5.78;3.25;;;;;;;;;;5076512;28;20529;-72
2021/09/01 13:14:02;;;;;;;5.22;3.67;;;;;;;;;;5074516;28;20105;-66
2021/09/01 13:16:28;;;;;;;5.93;3.38;;;;;;;;;;5075799;28;20088;-73
2021/09/01 13:18:54;;;;;;;4.13;3.50;;;;;;;;;;5078558;28;20048;-68
2021/09/01 13:21:20;;;;;;;4.85;3.42;;;;;;;;;;5077382;28;20581;-72
2021/09/01 13:23:46;;;;;;;5.05;3.58;;;;;;;;;;5078361;28;20060;-73
2021/09/01 13:26:12;;;;;;;6.47;3.78;;;;;;;;;;5078058;28;20399;-71
2021/09/01 13:28:38;;;;;;;5.70;3.65;;;;;;;;;;5077000;28;20078;-72
2021/09/01 13:31:04;;;;;;;4.97;3.10;;;;;;;;;;5074810;28;20043;-73
2021/09/01 13:33:31;;;;;;;11.60;4.85;;;;;;;;;;5075664;28;20028;-72
2021/09/01 13:35:57;;;;;;;6.13;3.83;;;;;;;;;;5077242;28;20357;-72
2021/09/01 13:38:31;;;;;;;7.07;3.92;;;;;;;;;;5079168;28;20032;-67
2021/09/01 13:40:57;;;;;;;6.78;4.47;;;;;;;;;;5079149;28;20040;-74
2021/09/01 13:43:23;;;;;;;6.22;4.80;;;;;;;;;;5075879;28;20444;-71
2021/09/01 13:45:49;;;;;;;5.20;3.03;;;;;;;;;;5075829;28;20108;-73
2021/09/01 13:48:15;;;;;;;12.05;5.03;;;;;;;;;;5081654;28;20024;-67
2021/09/01 13:50:41;;;;;;;7.55;3.63;;;;;;;;;;5080471;28;20028;-67
2021/09/01 13:53:08;;;;;;;8.60;3.53;;;;;;;;;;5082077;28;20032;-65
2021/09/01 13:55:34;;;;;;;6.13;4.07;;;;;;;;;;5065466;28;20025;-69
2021/09/01 13:58:03;;;;;;;6.20;4.30;;;;;;;;;;5058506;28;20025;-73
2021/09/01 14:00:33;;;;;;;6.13;3.83;;;;;;;;;;5066868;28;20391;-75
2021/09/01 14:03:02;;;;;;;4.97;3.72;;;;;;;;;;5072328;28;20032;-71
2021/09/01 14:05:28;;;;;;;7.20;4.15;;;;;;;;;;5078376;28;20044;-73
2021/09/01 14:07:55;;;;;;;5.80;4.40;;;;;;;;;;5072652;28;20048;-73
2021/09/01 14:10:21;;;;;;;6.82;3.33;;;;;;;;;;5070624;28;20098;-73
2021/09/01 14:12:47;;;;;;;5.18;3.85;;;;;;;;;;5072603;28;20052;-73
2021/09/01 14:15:13;;;;;;;8.55;4.03;;;;;;;;;;5071991;28;20508;-72
2021/09/01 14:17:40;;;;;;;3.95;3.50;;;;;;;;;;5070646;28;20027;-75
2021/09/01 14:20:06;;;;;;;4.93;3.65;;;;;;;;;;5069442;28;20048;-74
2021/09/01 14:22:33;;;;;;;4.07;3.10;;;;;;;;;;5070235;28;20029;-74
2021/09/01 14:24:59;;;;;;;5.68;3.60;;;;;;;;;;5069995;28;20434;-71
2021/09/01 14:27:25;;;;;;;4.10;3.22;;;;;;;;;;5070726;28;20039;-74
2021/09/01 14:29:51;;;;;;;6.63;3.72;;;;;;;;;;5071632;28;20074;-73
2021/09/01 14:32:17;;;;;;;7.97;3.75;;;;;;;;;;5071890;28;20032;-72
2021/09/01 14:34:43;;;;;;;4.88;3.15;;;;;;;;;;5083465;28;20031;-69
2021/09/01 14:37:09;;;;;;;4.13;3.15;;;;;;;;;;5071436;28;20028;-73
2021/09/01 14:39:36;;;;;;;4.28;3.40;;;;;;;;;;5077888;28;20387;-69
2021/09/01 14:42:11;;;;;;;6.68;3.88;;;;;;;;;;5079776;28;20031;-70
2021/09/01 14:44:37;;;;;;;;;;;;;;;;;;5063001;28;20084;-69
2021/09/01 14:47:04;;;;;;;6.00;3.25;;;;;;;;;;5064520;28;19939;-68
2021/09/01 14:49:30;;;;;;;3.88;3.00;;;;;;;;;;5064652;28;20104;-74
2021/09/01 14:51:56;;;;;;;7.22;3.75;;;;;;;;;;5078593;28;20059;-73